sensor_id;sensor_type;location;lat;lon;timestamp;P1;durP1;ratioP1;P2;durP2;ratioP2
5465;SDS011;2755;50.728;7.108;2023-10-08T00:00:46;182.13;;;141.93;;
5465;SDS011;2755;50.728;7.108;2023-10-08T00:03:20;181.37;;;139.57;;
5465;SDS011;2755;50.728;7.108;2023-10-08T00:05:47;185.43;;;149.10;;
5465;SDS011;2755;50.728;7.108;2023-10-08T00:08:14;185.17;;;147.53;;
5465;SDS011;2755;50.728;7.108;2023-10-08T00:10:41;186.90;;;148.40;;
5465;SDS011;2755;50.728;7.108;2023-10-08T00:13:08;179.33;;;138.60;;
5465;SDS011;2755;50.728;7.108;2023-10-08T00:15:37;183.63;;;142.97;;
5465;SDS011;2755;50.728;7.108;2023-10-08T00:18:09;184.43;;;145.53;;
5465;SDS011;2755;50.728;7.108;2023-10-08T00:20:36;182.80;;;142.80;;
5465;SDS011;2755;50.728;7.108;2023-10-08T00:23:19;179.23;;;138.93;;
5465;SDS011;2755;50.728;7.108;2023-10-08T00:25:50;182.13;;;143.00;;
5465;SDS011;2755;50.728;7.108;2023-10-08T00:28:19;180.90;;;140.00;;
5465;SDS011;2755;50.728;7.108;2023-10-08T00:30:46;181.33;;;138.93;;
5465;SDS011;2755;50.728;7.108;2023-10-08T00:33:13;177.37;;;133.07;;
5465;SDS011;2755;50.728;7.108;2023-10-08T00:35:40;178.97;;;135.73;;
5465;SDS011;2755;50.728;7.108;2023-10-08T00:38:09;182.97;;;143.37;;
5465;SDS011;2755;50.728;7.108;2023-10-08T00:40:45;184.83;;;148.47;;
5465;SDS011;2755;50.728;7.108;2023-10-08T00:46:03;178.67;;;136.60;;
5465;SDS011;2755;50.728;7.108;2023-10-08T00:48:36;179.57;;;137.70;;
5465;SDS011;2755;50.728;7.108;2023-10-08T00:51:04;181.90;;;142.00;;
5465;SDS011;2755;50.728;7.108;2023-10-08T00:53:56;185.07;;;141.47;;
5465;SDS011;2755;50.728;7.108;2023-10-08T00:56:31;179.50;;;140.77;;
5465;SDS011;2755;50.728;7.108;2023-10-08T00:59:22;181.97;;;142.43;;
5465;SDS011;2755;50.728;7.108;2023-10-08T01:01:49;180.17;;;141.57;;
5465;SDS011;2755;50.728;7.108;2023-10-08T01:04:29;175.47;;;129.40;;
5465;SDS011;2755;50.728;7.108;2023-10-08T01:06:59;179.57;;;139.17;;
5465;SDS011;2755;50.728;7.108;2023-10-08T01:09:38;175.07;;;129.47;;
5465;SDS011;2755;50.728;7.108;2023-10-08T01:12:08;175.90;;;134.20;;
5465;SDS011;2755;50.728;7.108;2023-10-08T01:14:37;173.70;;;125.30;;
5465;SDS011;2755;50.728;7.108;2023-10-08T01:17:07;176.67;;;134.07;;
5465;SDS011;2755;50.728;7.108;2023-10-08T01:19:33;172.47;;;128.50;;
5465;SDS011;2755;50.728;7.108;2023-10-08T01:22:05;173.87;;;129.80;;
5465;SDS011;2755;50.728;7.108;2023-10-08T01:24:41;172.97;;;130.23;;
5465;SDS011;2755;50.728;7.108;2023-10-08T01:27:08;172.27;;;128.23;;
5465;SDS011;2755;50.728;7.108;2023-10-08T01:29:36;172.13;;;130.00;;
5465;SDS011;2755;50.728;7.108;2023-10-08T01:32:08;170.87;;;125.90;;
5465;SDS011;2755;50.728;7.108;2023-10-08T01:34:35;175.93;;;131.30;;
5465;SDS011;2755;50.728;7.108;2023-10-08T01:37:01;176.17;;;132.73;;
5465;SDS011;2755;50.728;7.108;2023-10-08T01:39:34;180.50;;;139.80;;
5465;SDS011;2755;50.728;7.108;2023-10-08T01:42:04;174.77;;;132.03;;
5465;SDS011;2755;50.728;7.108;2023-10-08T01:44:30;172.40;;;130.13;;
5465;SDS011;2755;50.728;7.108;2023-10-08T01:46:58;178.90;;;138.30;;
5465;SDS011;2755;50.728;7.108;2023-10-08T01:49:24;181.93;;;144.20;;
5465;SDS011;2755;50.728;7.108;2023-10-08T01:51:57;184.07;;;148.60;;
5465;SDS011;2755;50.728;7.108;2023-10-08T01:54:22;179.07;;;138.87;;
5465;SDS011;2755;50.728;7.108;2023-10-08T01:56:51;180.97;;;141.20;;
5465;SDS011;2755;50.728;7.108;2023-10-08T01:59:17;173.20;;;130.43;;
5465;SDS011;2755;50.728;7.108;2023-10-08T02:01:43;173.77;;;127.87;;
5465;SDS011;2755;50.728;7.108;2023-10-08T02:04:10;173.67;;;127.60;;
5465;SDS011;2755;50.728;7.108;2023-10-08T02:06:37;174.27;;;127.03;;
5465;SDS011;2755;50.728;7.108;2023-10-08T02:09:07;168.13;;;117.83;;
5465;SDS011;2755;50.728;7.108;2023-10-08T02:11:45;166.53;;;115.83;;
5465;SDS011;2755;50.728;7.108;2023-10-08T02:14:16;166.77;;;113.00;;
5465;SDS011;2755;50.728;7.108;2023-10-08T02:16:42;167.77;;;117.50;;
5465;SDS011;2755;50.728;7.108;2023-10-08T02:19:09;163.00;;;109.83;;
5465;SDS011;2755;50.728;7.108;2023-10-08T02:21:38;165.60;;;113.37;;
5465;SDS011;2755;50.728;7.108;2023-10-08T02:24:05;161.83;;;109.47;;
5465;SDS011;2755;50.728;7.108;2023-10-08T02:26:32;160.57;;;105.07;;
5465;SDS011;2755;50.728;7.108;2023-10-08T02:28:59;160.70;;;105.40;;
5465;SDS011;2755;50.728;7.108;2023-10-08T02:31:33;159.30;;;103.07;;
5465;SDS011;2755;50.728;7.108;2023-10-08T02:33:59;159.00;;;101.67;;
5465;SDS011;2755;50.728;7.108;2023-10-08T02:36:24;157.70;;;101.57;;
5465;SDS011;2755;50.728;7.108;2023-10-08T02:38:50;158.10;;;100.00;;
5465;SDS011;2755;50.728;7.108;2023-10-08T02:41:16;157.07;;;98.47;;
5465;SDS011;2755;50.728;7.108;2023-10-08T02:43:42;154.23;;;94.57;;
5465;SDS011;2755;50.728;7.108;2023-10-08T02:46:10;156.57;;;98.40;;
5465;SDS011;2755;50.728;7.108;2023-10-08T02:48:40;155.53;;;96.73;;
5465;SDS011;2755;50.728;7.108;2023-10-08T02:51:06;156.83;;;98.37;;
5465;SDS011;2755;50.728;7.108;2023-10-08T02:53:38;155.17;;;95.43;;
5465;SDS011;2755;50.728;7.108;2023-10-08T02:56:07;156.87;;;97.77;;
5465;SDS011;2755;50.728;7.108;2023-10-08T02:58:37;157.43;;;99.73;;
5465;SDS011;2755;50.728;7.108;2023-10-08T03:01:04;156.80;;;99.37;;
5465;SDS011;2755;50.728;7.108;2023-10-08T03:03:30;158.40;;;104.00;;
5465;SDS011;2755;50.728;7.108;2023-10-08T03:05:57;156.67;;;98.17;;
5465;SDS011;2755;50.728;7.108;2023-10-08T03:08:23;158.37;;;101.27;;
5465;SDS011;2755;50.728;7.108;2023-10-08T03:10:50;157.30;;;102.50;;
5465;SDS011;2755;50.728;7.108;2023-10-08T03:13:20;159.67;;;108.17;;
5465;SDS011;2755;50.728;7.108;2023-10-08T03:15:51;159.57;;;105.13;;
5465;SDS011;2755;50.728;7.108;2023-10-08T03:18:22;161.17;;;110.60;;
5465;SDS011;2755;50.728;7.108;2023-10-08T03:20:48;161.83;;;110.63;;
5465;SDS011;2755;50.728;7.108;2023-10-08T03:23:15;164.87;;;115.33;;
5465;SDS011;2755;50.728;7.108;2023-10-08T03:25:51;163.87;;;111.67;;
5465;SDS011;2755;50.728;7.108;2023-10-08T03:28:39;162.10;;;111.20;;
5465;SDS011;2755;50.728;7.108;2023-10-08T03:31:06;162.00;;;111.00;;
5465;SDS011;2755;50.728;7.108;2023-10-08T03:33:39;162.33;;;110.37;;
5465;SDS011;2755;50.728;7.108;2023-10-08T03:36:04;164.40;;;112.97;;
5465;SDS011;2755;50.728;7.108;2023-10-08T03:38:39;164.80;;;113.13;;
5465;SDS011;2755;50.728;7.108;2023-10-08T03:41:16;162.80;;;112.70;;
5465;SDS011;2755;50.728;7.108;2023-10-08T03:43:43;164.57;;;114.33;;
5465;SDS011;2755;50.728;7.108;2023-10-08T03:46:18;162.97;;;112.37;;
5465;SDS011;2755;50.728;7.108;2023-10-08T03:48:46;160.30;;;105.10;;
5465;SDS011;2755;50.728;7.108;2023-10-08T03:51:15;162.20;;;109.43;;
5465;SDS011;2755;50.728;7.108;2023-10-08T03:53:44;162.37;;;110.57;;
5465;SDS011;2755;50.728;7.108;2023-10-08T03:56:29;164.30;;;111.77;;
5465;SDS011;2755;50.728;7.108;2023-10-08T03:58:56;160.23;;;106.70;;
5465;SDS011;2755;50.728;7.108;2023-10-08T04:01:26;163.83;;;112.27;;
5465;SDS011;2755;50.728;7.108;2023-10-08T04:03:56;164.33;;;110.57;;
5465;SDS011;2755;50.728;7.108;2023-10-08T04:06:22;163.57;;;109.37;;
5465;SDS011;2755;50.728;7.108;2023-10-08T04:08:59;164.77;;;115.17;;
5465;SDS011;2755;50.728;7.108;2023-10-08T04:11:35;164.70;;;113.70;;
5465;SDS011;2755;50.728;7.108;2023-10-08T04:14:01;160.47;;;107.03;;
5465;SDS011;2755;50.728;7.108;2023-10-08T04:16:31;164.53;;;113.73;;
5465;SDS011;2755;50.728;7.108;2023-10-08T04:19:02;166.63;;;117.53;;
5465;SDS011;2755;50.728;7.108;2023-10-08T04:21:28;163.93;;;113.67;;
5465;SDS011;2755;50.728;7.108;2023-10-08T04:23:54;165.40;;;113.63;;
5465;SDS011;2755;50.728;7.108;2023-10-08T04:26:22;167.33;;;117.83;;
5465;SDS011;2755;50.728;7.108;2023-10-08T04:28:54;163.23;;;111.17;;
5465;SDS011;2755;50.728;7.108;2023-10-08T04:31:26;165.03;;;114.67;;
5465;SDS011;2755;50.728;7.108;2023-10-08T04:34:02;168.40;;;118.70;;
5465;SDS011;2755;50.728;7.108;2023-10-08T04:36:35;166.47;;;118.10;;
5465;SDS011;2755;50.728;7.108;2023-10-08T04:39:03;163.97;;;110.60;;
5465;SDS011;2755;50.728;7.108;2023-10-08T04:41:38;168.20;;;118.70;;
5465;SDS011;2755;50.728;7.108;2023-10-08T04:44:07;166.23;;;115.27;;
5465;SDS011;2755;50.728;7.108;2023-10-08T04:46:39;165.70;;;114.30;;
5465;SDS011;2755;50.728;7.108;2023-10-08T04:49:11;165.67;;;114.70;;
5465;SDS011;2755;50.728;7.108;2023-10-08T04:51:51;168.17;;;118.23;;
5465;SDS011;2755;50.728;7.108;2023-10-08T04:54:21;163.40;;;110.30;;
5465;SDS011;2755;50.728;7.108;2023-10-08T04:56:59;169.37;;;120.57;;
5465;SDS011;2755;50.728;7.108;2023-10-08T04:59:27;168.47;;;118.50;;
5465;SDS011;2755;50.728;7.108;2023-10-08T05:01:59;165.87;;;115.97;;
5465;SDS011;2755;50.728;7.108;2023-10-08T05:04:44;166.57;;;117.37;;
5465;SDS011;2755;50.728;7.108;2023-10-08T05:07:16;169.47;;;123.93;;
5465;SDS011;2755;50.728;7.108;2023-10-08T05:09:42;167.17;;;118.80;;
5465;SDS011;2755;50.728;7.108;2023-10-08T05:12:30;166.87;;;117.27;;
5465;SDS011;2755;50.728;7.108;2023-10-08T05:15:14;163.93;;;111.77;;
5465;SDS011;2755;50.728;7.108;2023-10-08T05:17:41;168.87;;;120.87;;
5465;SDS011;2755;50.728;7.108;2023-10-08T05:20:16;168.23;;;118.50;;
5465;SDS011;2755;50.728;7.108;2023-10-08T05:23:11;164.67;;;113.87;;
5465;SDS011;2755;50.728;7.108;2023-10-08T05:25:51;162.20;;;107.77;;
5465;SDS011;2755;50.728;7.108;2023-10-08T05:28:32;165.03;;;112.67;;
5465;SDS011;2755;50.728;7.108;2023-10-08T05:31:11;166.63;;;117.23;;
5465;SDS011;2755;50.728;7.108;2023-10-08T05:33:38;164.93;;;113.83;;
5465;SDS011;2755;50.728;7.108;2023-10-08T05:36:23;166.13;;;113.37;;
5465;SDS011;2755;50.728;7.108;2023-10-08T05:39:07;168.27;;;118.43;;
5465;SDS011;2755;50.728;7.108;2023-10-08T05:41:55;165.70;;;114.73;;
5465;SDS011;2755;50.728;7.108;2023-10-08T05:44:41;165.60;;;115.83;;
5465;SDS011;2755;50.728;7.108;2023-10-08T05:47:26;167.10;;;116.73;;
5465;SDS011;2755;50.728;7.108;2023-10-08T05:49:57;168.93;;;120.03;;
5465;SDS011;2755;50.728;7.108;2023-10-08T05:52:41;166.63;;;117.77;;
5465;SDS011;2755;50.728;7.108;2023-10-08T05:55:23;163.67;;;112.47;;
5465;SDS011;2755;50.728;7.108;2023-10-08T05:58:06;167.40;;;118.63;;
5465;SDS011;2755;50.728;7.108;2023-10-08T06:00:44;169.77;;;121.90;;
5465;SDS011;2755;50.728;7.108;2023-10-08T06:03:19;168.83;;;120.07;;
5465;SDS011;2755;50.728;7.108;2023-10-08T06:06:01;168.60;;;120.50;;
5465;SDS011;2755;50.728;7.108;2023-10-08T06:08:37;171.70;;;122.73;;
5465;SDS011;2755;50.728;7.108;2023-10-08T06:11:14;176.57;;;134.87;;
5465;SDS011;2755;50.728;7.108;2023-10-08T06:14:01;173.67;;;128.60;;
5465;SDS011;2755;50.728;7.108;2023-10-08T06:16:36;170.07;;;121.57;;
5465;SDS011;2755;50.728;7.108;2023-10-08T06:19:09;173.57;;;128.63;;
5465;SDS011;2755;50.728;7.108;2023-10-08T06:21:37;172.77;;;125.20;;
5465;SDS011;2755;50.728;7.108;2023-10-08T06:24:05;176.27;;;133.07;;
5465;SDS011;2755;50.728;7.108;2023-10-08T06:26:38;174.97;;;129.97;;
5465;SDS011;2755;50.728;7.108;2023-10-08T06:29:24;174.50;;;129.07;;
5465;SDS011;2755;50.728;7.108;2023-10-08T06:31:54;168.77;;;119.80;;
5465;SDS011;2755;50.728;7.108;2023-10-08T06:34:22;174.87;;;130.93;;
5465;SDS011;2755;50.728;7.108;2023-10-08T06:36:52;175.60;;;132.03;;
5465;SDS011;2755;50.728;7.108;2023-10-08T06:39:22;172.93;;;126.17;;
5465;SDS011;2755;50.728;7.108;2023-10-08T06:41:59;175.17;;;128.67;;
5465;SDS011;2755;50.728;7.108;2023-10-08T06:44:25;174.83;;;128.77;;
5465;SDS011;2755;50.728;7.108;2023-10-08T06:46:53;172.73;;;127.90;;
5465;SDS011;2755;50.728;7.108;2023-10-08T06:49:20;174.77;;;129.70;;
5465;SDS011;2755;50.728;7.108;2023-10-08T06:51:49;176.30;;;131.07;;
5465;SDS011;2755;50.728;7.108;2023-10-08T06:54:16;171.63;;;124.37;;
5465;SDS011;2755;50.728;7.108;2023-10-08T06:56:43;163.33;;;109.07;;
5465;SDS011;2755;50.728;7.108;2023-10-08T06:59:14;160.27;;;107.30;;
5465;SDS011;2755;50.728;7.108;2023-10-08T07:01:42;164.13;;;113.20;;
5465;SDS011;2755;50.728;7.108;2023-10-08T07:04:11;168.03;;;121.47;;
5465;SDS011;2755;50.728;7.108;2023-10-08T07:06:38;171.83;;;125.10;;
5465;SDS011;2755;50.728;7.108;2023-10-08T07:09:04;170.20;;;122.60;;
5465;SDS011;2755;50.728;7.108;2023-10-08T07:11:34;169.20;;;122.20;;
5465;SDS011;2755;50.728;7.108;2023-10-08T07:14:03;168.30;;;120.00;;
5465;SDS011;2755;50.728;7.108;2023-10-08T07:16:30;162.53;;;110.10;;
5465;SDS011;2755;50.728;7.108;2023-10-08T07:18:56;161.10;;;107.93;;
5465;SDS011;2755;50.728;7.108;2023-10-08T07:21:28;166.13;;;117.00;;
5465;SDS011;2755;50.728;7.108;2023-10-08T07:23:54;166.97;;;119.97;;
5465;SDS011;2755;50.728;7.108;2023-10-08T07:26:27;167.33;;;120.87;;
5465;SDS011;2755;50.728;7.108;2023-10-08T07:29:01;172.73;;;125.23;;
5465;SDS011;2755;50.728;7.108;2023-10-08T07:31:34;170.17;;;121.40;;
5465;SDS011;2755;50.728;7.108;2023-10-08T07:34:01;171.43;;;125.07;;
5465;SDS011;2755;50.728;7.108;2023-10-08T07:36:57;169.20;;;119.03;;
5465;SDS011;2755;50.728;7.108;2023-10-08T07:39:22;180.90;;;139.70;;
5465;SDS011;2755;50.728;7.108;2023-10-08T07:41:48;187.67;;;151.10;;
5465;SDS011;2755;50.728;7.108;2023-10-08T07:44:14;187.27;;;151.30;;
5465;SDS011;2755;50.728;7.108;2023-10-08T07:46:40;183.33;;;145.47;;
5465;SDS011;2755;50.728;7.108;2023-10-08T07:49:06;187.30;;;150.97;;
5465;SDS011;2755;50.728;7.108;2023-10-08T07:51:31;187.93;;;152.47;;
5465;SDS011;2755;50.728;7.108;2023-10-08T07:53:58;181.17;;;141.90;;
5465;SDS011;2755;50.728;7.108;2023-10-08T07:56:25;184.47;;;148.37;;
5465;SDS011;2755;50.728;7.108;2023-10-08T07:58:51;184.67;;;149.40;;
5465;SDS011;2755;50.728;7.108;2023-10-08T08:01:17;184.97;;;148.17;;
5465;SDS011;2755;50.728;7.108;2023-10-08T08:03:45;182.40;;;144.47;;
5465;SDS011;2755;50.728;7.108;2023-10-08T08:06:13;181.13;;;139.73;;
5465;SDS011;2755;50.728;7.108;2023-10-08T08:08:40;179.93;;;138.53;;
5465;SDS011;2755;50.728;7.108;2023-10-08T08:11:07;176.07;;;133.57;;
5465;SDS011;2755;50.728;7.108;2023-10-08T08:13:42;170.50;;;121.27;;
5465;SDS011;2755;50.728;7.108;2023-10-08T08:16:11;177.43;;;130.10;;
5465;SDS011;2755;50.728;7.108;2023-10-08T08:18:46;188.17;;;147.73;;
5465;SDS011;2755;50.728;7.108;2023-10-08T08:21:14;192.87;;;155.10;;
5465;SDS011;2755;50.728;7.108;2023-10-08T08:23:44;186.80;;;149.50;;
5465;SDS011;2755;50.728;7.108;2023-10-08T08:26:14;188.90;;;151.37;;
5465;SDS011;2755;50.728;7.108;2023-10-08T08:28:54;170.77;;;124.40;;
5465;SDS011;2755;50.728;7.108;2023-10-08T08:31:22;175.47;;;129.60;;
5465;SDS011;2755;50.728;7.108;2023-10-08T08:33:51;175.73;;;129.33;;
5465;SDS011;2755;50.728;7.108;2023-10-08T08:36:21;170.30;;;118.27;;
5465;SDS011;2755;50.728;7.108;2023-10-08T08:38:48;165.93;;;113.13;;
5465;SDS011;2755;50.728;7.108;2023-10-08T08:41:14;166.17;;;112.77;;
5465;SDS011;2755;50.728;7.108;2023-10-08T08:43:50;165.13;;;113.33;;
5465;SDS011;2755;50.728;7.108;2023-10-08T08:46:41;170.63;;;121.73;;
5465;SDS011;2755;50.728;7.108;2023-10-08T08:49:08;175.27;;;126.63;;
5465;SDS011;2755;50.728;7.108;2023-10-08T08:51:37;183.50;;;142.40;;
5465;SDS011;2755;50.728;7.108;2023-10-08T08:54:03;193.67;;;155.30;;
5465;SDS011;2755;50.728;7.108;2023-10-08T08:56:37;199.57;;;166.50;;
5465;SDS011;2755;50.728;7.108;2023-10-08T08:59:06;192.97;;;153.57;;
5465;SDS011;2755;50.728;7.108;2023-10-08T09:01:36;185.13;;;141.33;;
5465;SDS011;2755;50.728;7.108;2023-10-08T09:04:03;183.77;;;136.60;;
5465;SDS011;2755;50.728;7.108;2023-10-08T09:06:33;187.63;;;142.53;;
5465;SDS011;2755;50.728;7.108;2023-10-08T09:09:06;184.43;;;136.93;;
5465;SDS011;2755;50.728;7.108;2023-10-08T09:11:50;180.87;;;129.93;;
5465;SDS011;2755;50.728;7.108;2023-10-08T09:14:19;181.63;;;131.93;;
5465;SDS011;2755;50.728;7.108;2023-10-08T09:16:50;183.67;;;132.60;;
5465;SDS011;2755;50.728;7.108;2023-10-08T09:19:16;183.17;;;136.27;;
5465;SDS011;2755;50.728;7.108;2023-10-08T09:21:59;181.93;;;134.63;;
5465;SDS011;2755;50.728;7.108;2023-10-08T09:24:29;185.37;;;137.10;;
5465;SDS011;2755;50.728;7.108;2023-10-08T09:26:55;174.73;;;121.77;;
5465;SDS011;2755;50.728;7.108;2023-10-08T09:29:22;177.73;;;128.50;;
5465;SDS011;2755;50.728;7.108;2023-10-08T09:31:52;176.30;;;127.83;;
5465;SDS011;2755;50.728;7.108;2023-10-08T09:34:22;177.23;;;128.57;;
5465;SDS011;2755;50.728;7.108;2023-10-08T09:36:58;182.80;;;135.83;;
5465;SDS011;2755;50.728;7.108;2023-10-08T09:39:25;187.60;;;141.60;;
5465;SDS011;2755;50.728;7.108;2023-10-08T09:41:59;180.97;;;130.20;;
5465;SDS011;2755;50.728;7.108;2023-10-08T09:44:27;189.87;;;144.90;;
5465;SDS011;2755;50.728;7.108;2023-10-08T09:47:03;192.23;;;151.13;;
5465;SDS011;2755;50.728;7.108;2023-10-08T09:49:36;192.53;;;151.03;;
5465;SDS011;2755;50.728;7.108;2023-10-08T09:52:07;201.40;;;159.60;;
5465;SDS011;2755;50.728;7.108;2023-10-08T09:54:45;199.57;;;160.47;;
5465;SDS011;2755;50.728;7.108;2023-10-08T09:57:18;196.60;;;156.23;;
5465;SDS011;2755;50.728;7.108;2023-10-08T09:59:46;191.07;;;143.57;;
5465;SDS011;2755;50.728;7.108;2023-10-08T10:02:14;193.83;;;148.00;;
5465;SDS011;2755;50.728;7.108;2023-10-08T10:04:41;204.10;;;165.73;;
5465;SDS011;2755;50.728;7.108;2023-10-08T10:07:10;202.80;;;166.43;;
5465;SDS011;2755;50.728;7.108;2023-10-08T10:09:38;193.70;;;152.43;;
5465;SDS011;2755;50.728;7.108;2023-10-08T10:12:07;187.47;;;141.33;;
5465;SDS011;2755;50.728;7.108;2023-10-08T10:14:42;186.83;;;140.37;;
5465;SDS011;2755;50.728;7.108;2023-10-08T10:19:49;183.17;;;135.83;;
5465;SDS011;2755;50.728;7.108;2023-10-08T10:22:26;188.17;;;145.17;;
5465;SDS011;2755;50.728;7.108;2023-10-08T10:24:53;187.20;;;143.67;;
5465;SDS011;2755;50.728;7.108;2023-10-08T10:27:20;183.63;;;139.50;;
5465;SDS011;2755;50.728;7.108;2023-10-08T10:29:46;187.77;;;142.97;;
5465;SDS011;2755;50.728;7.108;2023-10-08T10:32:13;184.20;;;138.03;;
5465;SDS011;2755;50.728;7.108;2023-10-08T10:34:40;187.90;;;144.17;;
5465;SDS011;2755;50.728;7.108;2023-10-08T10:37:07;184.27;;;137.40;;
5465;SDS011;2755;50.728;7.108;2023-10-08T10:39:54;182.30;;;133.57;;
5465;SDS011;2755;50.728;7.108;2023-10-08T10:42:24;180.70;;;131.10;;
5465;SDS011;2755;50.728;7.108;2023-10-08T10:44:51;178.37;;;128.20;;
5465;SDS011;2755;50.728;7.108;2023-10-08T10:47:18;179.30;;;129.67;;
5465;SDS011;2755;50.728;7.108;2023-10-08T10:49:51;178.23;;;127.57;;
5465;SDS011;2755;50.728;7.108;2023-10-08T10:52:24;175.63;;;126.73;;
5465;SDS011;2755;50.728;7.108;2023-10-08T10:55:00;181.97;;;134.37;;
5465;SDS011;2755;50.728;7.108;2023-10-08T10:57:46;180.50;;;132.03;;
5465;SDS011;2755;50.728;7.108;2023-10-08T11:00:29;175.57;;;123.57;;
5465;SDS011;2755;50.728;7.108;2023-10-08T11:02:58;176.17;;;123.87;;
5465;SDS011;2755;50.728;7.108;2023-10-08T11:05:31;180.90;;;130.57;;
5465;SDS011;2755;50.728;7.108;2023-10-08T11:08:02;180.47;;;133.90;;
5465;SDS011;2755;50.728;7.108;2023-10-08T11:10:38;178.00;;;128.50;;
5465;SDS011;2755;50.728;7.108;2023-10-08T11:13:04;180.57;;;132.87;;
5465;SDS011;2755;50.728;7.108;2023-10-08T11:15:39;174.83;;;124.27;;
5465;SDS011;2755;50.728;7.108;2023-10-08T11:18:07;174.30;;;121.20;;
5465;SDS011;2755;50.728;7.108;2023-10-08T11:20:34;178.57;;;126.90;;
5465;SDS011;2755;50.728;7.108;2023-10-08T11:23:05;176.63;;;122.93;;
5465;SDS011;2755;50.728;7.108;2023-10-08T11:25:56;184.37;;;134.70;;
5465;SDS011;2755;50.728;7.108;2023-10-08T11:28:27;184.83;;;140.10;;
5465;SDS011;2755;50.728;7.108;2023-10-08T11:30:53;182.70;;;133.23;;
5465;SDS011;2755;50.728;7.108;2023-10-08T11:33:19;185.17;;;137.40;;
5465;SDS011;2755;50.728;7.108;2023-10-08T11:35:55;188.93;;;145.80;;
5465;SDS011;2755;50.728;7.108;2023-10-08T11:38:23;186.77;;;142.10;;
5465;SDS011;2755;50.728;7.108;2023-10-08T11:40:49;189.00;;;142.17;;
5465;SDS011;2755;50.728;7.108;2023-10-08T11:43:16;186.93;;;141.37;;
5465;SDS011;2755;50.728;7.108;2023-10-08T11:45:45;190.87;;;145.90;;
5465;SDS011;2755;50.728;7.108;2023-10-08T11:48:16;187.70;;;138.80;;
5465;SDS011;2755;50.728;7.108;2023-10-08T11:50:53;188.80;;;142.73;;
5465;SDS011;2755;50.728;7.108;2023-10-08T11:53:22;186.87;;;140.60;;
5465;SDS011;2755;50.728;7.108;2023-10-08T11:55:49;183.87;;;134.60;;
5465;SDS011;2755;50.728;7.108;2023-10-08T11:58:19;181.67;;;132.77;;
5465;SDS011;2755;50.728;7.108;2023-10-08T12:00:45;180.90;;;129.20;;
5465;SDS011;2755;50.728;7.108;2023-10-08T12:03:14;168.30;;;110.40;;
5465;SDS011;2755;50.728;7.108;2023-10-08T12:05:46;171.17;;;117.77;;
5465;SDS011;2755;50.728;7.108;2023-10-08T12:08:14;168.57;;;113.90;;
5465;SDS011;2755;50.728;7.108;2023-10-08T12:10:44;173.37;;;120.43;;
5465;SDS011;2755;50.728;7.108;2023-10-08T12:13:11;175.73;;;125.10;;
5465;SDS011;2755;50.728;7.108;2023-10-08T12:15:37;185.97;;;139.77;;
5465;SDS011;2755;50.728;7.108;2023-10-08T12:18:04;187.63;;;144.70;;
5465;SDS011;2755;50.728;7.108;2023-10-08T12:20:48;190.20;;;145.50;;
5465;SDS011;2755;50.728;7.108;2023-10-08T12:23:14;195.53;;;157.23;;
5465;SDS011;2755;50.728;7.108;2023-10-08T12:26:00;192.07;;;152.03;;
5465;SDS011;2755;50.728;7.108;2023-10-08T12:28:28;193.17;;;153.20;;
5465;SDS011;2755;50.728;7.108;2023-10-08T12:30:53;195.40;;;156.33;;
5465;SDS011;2755;50.728;7.108;2023-10-08T12:33:21;195.30;;;156.23;;
5465;SDS011;2755;50.728;7.108;2023-10-08T12:35:49;194.83;;;155.03;;
5465;SDS011;2755;50.728;7.108;2023-10-08T12:38:18;204.27;;;172.53;;
5465;SDS011;2755;50.728;7.108;2023-10-08T12:40:47;209.37;;;179.93;;
5465;SDS011;2755;50.728;7.108;2023-10-08T12:43:19;206.00;;;178.77;;
5465;SDS011;2755;50.728;7.108;2023-10-08T12:45:46;202.03;;;171.03;;
5465;SDS011;2755;50.728;7.108;2023-10-08T12:48:17;200.47;;;168.97;;
5465;SDS011;2755;50.728;7.108;2023-10-08T12:50:43;192.57;;;158.73;;
5465;SDS011;2755;50.728;7.108;2023-10-08T12:53:09;186.73;;;146.93;;
5465;SDS011;2755;50.728;7.108;2023-10-08T12:55:36;187.70;;;149.00;;
5465;SDS011;2755;50.728;7.108;2023-10-08T12:58:06;189.67;;;149.80;;
5465;SDS011;2755;50.728;7.108;2023-10-08T13:00:38;189.43;;;152.57;;
5465;SDS011;2755;50.728;7.108;2023-10-08T13:03:04;186.37;;;147.30;;
5465;SDS011;2755;50.728;7.108;2023-10-08T13:05:43;185.10;;;144.70;;
5465;SDS011;2755;50.728;7.108;2023-10-08T13:08:12;186.30;;;142.93;;
5465;SDS011;2755;50.728;7.108;2023-10-08T13:10:39;174.97;;;126.77;;
5465;SDS011;2755;50.728;7.108;2023-10-08T13:13:08;173.57;;;122.27;;
5465;SDS011;2755;50.728;7.108;2023-10-08T13:15:38;173.00;;;122.30;;
5465;SDS011;2755;50.728;7.108;2023-10-08T13:18:07;168.73;;;114.07;;
5465;SDS011;2755;50.728;7.108;2023-10-08T13:20:33;167.07;;;110.67;;
5465;SDS011;2755;50.728;7.108;2023-10-08T13:23:02;171.53;;;118.37;;
5465;SDS011;2755;50.728;7.108;2023-10-08T13:25:31;168.63;;;110.53;;
5465;SDS011;2755;50.728;7.108;2023-10-08T13:28:01;166.43;;;109.37;;
5465;SDS011;2755;50.728;7.108;2023-10-08T13:30:27;172.47;;;116.30;;
5465;SDS011;2755;50.728;7.108;2023-10-08T13:32:52;171.57;;;117.10;;
5465;SDS011;2755;50.728;7.108;2023-10-08T13:35:18;170.50;;;114.37;;
5465;SDS011;2755;50.728;7.108;2023-10-08T13:37:44;166.90;;;110.40;;
5465;SDS011;2755;50.728;7.108;2023-10-08T13:40:13;167.17;;;109.73;;
5465;SDS011;2755;50.728;7.108;2023-10-08T13:42:40;169.97;;;113.20;;
5465;SDS011;2755;50.728;7.108;2023-10-08T13:45:09;169.00;;;110.37;;
5465;SDS011;2755;50.728;7.108;2023-10-08T13:47:41;166.20;;;107.10;;
5465;SDS011;2755;50.728;7.108;2023-10-08T13:50:07;168.13;;;112.67;;
5465;SDS011;2755;50.728;7.108;2023-10-08T13:52:35;169.13;;;111.90;;
5465;SDS011;2755;50.728;7.108;2023-10-08T13:55:05;169.13;;;110.57;;
5465;SDS011;2755;50.728;7.108;2023-10-08T13:57:38;171.47;;;116.17;;
5465;SDS011;2755;50.728;7.108;2023-10-08T14:00:07;168.13;;;110.60;;
5465;SDS011;2755;50.728;7.108;2023-10-08T14:02:40;171.10;;;114.37;;
5465;SDS011;2755;50.728;7.108;2023-10-08T14:05:07;171.37;;;116.73;;
5465;SDS011;2755;50.728;7.108;2023-10-08T14:07:34;171.87;;;119.17;;
5465;SDS011;2755;50.728;7.108;2023-10-08T14:10:00;173.57;;;117.23;;
5465;SDS011;2755;50.728;7.108;2023-10-08T14:12:30;176.60;;;127.47;;
5465;SDS011;2755;50.728;7.108;2023-10-08T14:15:00;175.97;;;124.27;;
5465;SDS011;2755;50.728;7.108;2023-10-08T14:17:31;179.50;;;129.77;;
5465;SDS011;2755;50.728;7.108;2023-10-08T14:20:13;180.37;;;132.27;;
5465;SDS011;2755;50.728;7.108;2023-10-08T14:22:40;180.57;;;136.27;;
5465;SDS011;2755;50.728;7.108;2023-10-08T14:25:07;180.40;;;136.37;;
5465;SDS011;2755;50.728;7.108;2023-10-08T14:27:37;182.90;;;134.07;;
5465;SDS011;2755;50.728;7.108;2023-10-08T14:30:09;182.00;;;138.80;;
5465;SDS011;2755;50.728;7.108;2023-10-08T14:32:43;182.00;;;138.03;;
5465;SDS011;2755;50.728;7.108;2023-10-08T14:35:12;180.30;;;135.67;;
5465;SDS011;2755;50.728;7.108;2023-10-08T14:37:56;182.10;;;137.07;;
5465;SDS011;2755;50.728;7.108;2023-10-08T14:40:48;183.40;;;141.43;;
5465;SDS011;2755;50.728;7.108;2023-10-08T14:43:32;180.00;;;132.27;;
5465;SDS011;2755;50.728;7.108;2023-10-08T14:46:00;178.03;;;131.10;;
5465;SDS011;2755;50.728;7.108;2023-10-08T14:48:34;174.23;;;127.63;;